sensor_id;sensor_type;location;lat;lon;timestamp;P1;durP1;ratioP1;P2;durP2;ratioP2
25073;SDS011;13066;52.042;5.648;2023-09-30T00:00:35;11.63;;;5.70;;
25073;SDS011;13066;52.042;5.648;2023-09-30T00:03:03;23.02;;;7.10;;
25073;SDS011;13066;52.042;5.648;2023-09-30T00:05:31;19.15;;;6.90;;
25073;SDS011;13066;52.042;5.648;2023-09-30T00:07:59;21.38;;;6.90;;
25073;SDS011;13066;52.042;5.648;2023-09-30T00:10:27;21.05;;;6.82;;
25073;SDS011;13066;52.042;5.648;2023-09-30T00:12:56;22.30;;;6.88;;
25073;SDS011;13066;52.042;5.648;2023-09-30T00:15:25;25.33;;;7.00;;
25073;SDS011;13066;52.042;5.648;2023-09-30T00:17:54;17.83;;;7.00;;
25073;SDS011;13066;52.042;5.648;2023-09-30T00:20:22;17.73;;;6.57;;
25073;SDS011;13066;52.042;5.648;2023-09-30T00:22:50;18.52;;;6.78;;
25073;SDS011;13066;52.042;5.648;2023-09-30T00:25:18;19.70;;;7.28;;
25073;SDS011;13066;52.042;5.648;2023-09-30T00:27:47;17.23;;;6.85;;
25073;SDS011;13066;52.042;5.648;2023-09-30T00:30:15;20.83;;;6.97;;
25073;SDS011;13066;52.042;5.648;2023-09-30T00:32:43;22.98;;;7.15;;
25073;SDS011;13066;52.042;5.648;2023-09-30T00:35:13;19.10;;;7.22;;
25073;SDS011;13066;52.042;5.648;2023-09-30T00:37:42;20.45;;;7.32;;
25073;SDS011;13066;52.042;5.648;2023-09-30T00:40:10;20.67;;;7.07;;
25073;SDS011;13066;52.042;5.648;2023-09-30T00:42:40;26.27;;;7.40;;
25073;SDS011;13066;52.042;5.648;2023-09-30T00:45:08;17.65;;;7.03;;
25073;SDS011;13066;52.042;5.648;2023-09-30T00:47:37;22.05;;;7.22;;
25073;SDS011;13066;52.042;5.648;2023-09-30T00:50:05;20.92;;;7.47;;
25073;SDS011;13066;52.042;5.648;2023-09-30T00:52:36;22.48;;;7.30;;
25073;SDS011;13066;52.042;5.648;2023-09-30T00:55:05;24.67;;;7.85;;
25073;SDS011;13066;52.042;5.648;2023-09-30T00:57:34;23.85;;;7.80;;
25073;SDS011;13066;52.042;5.648;2023-09-30T01:00:02;17.58;;;7.32;;
25073;SDS011;13066;52.042;5.648;2023-09-30T01:02:32;20.25;;;6.90;;
25073;SDS011;13066;52.042;5.648;2023-09-30T01:05:01;24.55;;;7.22;;
25073;SDS011;13066;52.042;5.648;2023-09-30T01:07:30;18.88;;;6.72;;
25073;SDS011;13066;52.042;5.648;2023-09-30T01:09:59;22.17;;;7.75;;
25073;SDS011;13066;52.042;5.648;2023-09-30T01:12:27;19.35;;;7.45;;
25073;SDS011;13066;52.042;5.648;2023-09-30T01:14:57;18.30;;;7.20;;
25073;SDS011;13066;52.042;5.648;2023-09-30T01:17:25;21.88;;;7.38;;
25073;SDS011;13066;52.042;5.648;2023-09-30T01:19:54;24.10;;;7.50;;
25073;SDS011;13066;52.042;5.648;2023-09-30T01:22:24;19.55;;;7.72;;
25073;SDS011;13066;52.042;5.648;2023-09-30T01:24:54;21.00;;;7.60;;
25073;SDS011;13066;52.042;5.648;2023-09-30T01:27:23;20.65;;;7.50;;
25073;SDS011;13066;52.042;5.648;2023-09-30T01:29:52;15.90;;;7.45;;
25073;SDS011;13066;52.042;5.648;2023-09-30T01:32:19;19.77;;;7.57;;
25073;SDS011;13066;52.042;5.648;2023-09-30T01:34:47;20.02;;;7.35;;
25073;SDS011;13066;52.042;5.648;2023-09-30T01:37:15;21.63;;;7.95;;
25073;SDS011;13066;52.042;5.648;2023-09-30T01:39:45;18.40;;;8.25;;
25073;SDS011;13066;52.042;5.648;2023-09-30T01:42:13;24.67;;;8.30;;
25073;SDS011;13066;52.042;5.648;2023-09-30T01:44:41;17.17;;;8.07;;
25073;SDS011;13066;52.042;5.648;2023-09-30T01:47:09;23.35;;;7.55;;
25073;SDS011;13066;52.042;5.648;2023-09-30T01:49:37;21.42;;;8.73;;
25073;SDS011;13066;52.042;5.648;2023-09-30T01:52:06;20.90;;;7.78;;
25073;SDS011;13066;52.042;5.648;2023-09-30T01:54:33;18.95;;;8.27;;
25073;SDS011;13066;52.042;5.648;2023-09-30T01:57:03;20.42;;;8.75;;
25073;SDS011;13066;52.042;5.648;2023-09-30T01:59:31;24.70;;;8.68;;
25073;SDS011;13066;52.042;5.648;2023-09-30T02:01:59;24.30;;;8.90;;
25073;SDS011;13066;52.042;5.648;2023-09-30T02:04:29;17.50;;;8.15;;
25073;SDS011;13066;52.042;5.648;2023-09-30T02:06:57;17.15;;;8.25;;
25073;SDS011;13066;52.042;5.648;2023-09-30T02:09:26;19.52;;;8.05;;
25073;SDS011;13066;52.042;5.648;2023-09-30T02:11:54;22.40;;;8.05;;
25073;SDS011;13066;52.042;5.648;2023-09-30T02:14:23;19.08;;;7.82;;
25073;SDS011;13066;52.042;5.648;2023-09-30T02:16:52;21.08;;;8.73;;
25073;SDS011;13066;52.042;5.648;2023-09-30T02:19:20;19.88;;;8.25;;
25073;SDS011;13066;52.042;5.648;2023-09-30T02:21:48;20.38;;;8.18;;
25073;SDS011;13066;52.042;5.648;2023-09-30T02:24:16;19.85;;;8.55;;
25073;SDS011;13066;52.042;5.648;2023-09-30T02:26:44;23.88;;;9.10;;
25073;SDS011;13066;52.042;5.648;2023-09-30T02:29:11;25.08;;;8.48;;
25073;SDS011;13066;52.042;5.648;2023-09-30T02:31:41;15.93;;;8.05;;
25073;SDS011;13066;52.042;5.648;2023-09-30T02:34:09;16.52;;;8.32;;
25073;SDS011;13066;52.042;5.648;2023-09-30T02:36:39;22.52;;;8.80;;
25073;SDS011;13066;52.042;5.648;2023-09-30T02:39:08;18.02;;;8.55;;
25073;SDS011;13066;52.042;5.648;2023-09-30T02:41:36;21.67;;;9.02;;
25073;SDS011;13066;52.042;5.648;2023-09-30T02:44:04;21.17;;;9.07;;
25073;SDS011;13066;52.042;5.648;2023-09-30T02:46:32;21.38;;;8.50;;
25073;SDS011;13066;52.042;5.648;2023-09-30T02:49:02;22.60;;;9.48;;
25073;SDS011;13066;52.042;5.648;2023-09-30T02:51:30;21.48;;;8.50;;
25073;SDS011;13066;52.042;5.648;2023-09-30T02:53:58;20.52;;;9.18;;
25073;SDS011;13066;52.042;5.648;2023-09-30T02:56:26;18.27;;;8.82;;
25073;SDS011;13066;52.042;5.648;2023-09-30T02:58:57;20.75;;;9.27;;
25073;SDS011;13066;52.042;5.648;2023-09-30T03:01:25;19.13;;;9.05;;
25073;SDS011;13066;52.042;5.648;2023-09-30T03:03:54;20.92;;;9.35;;
25073;SDS011;13066;52.042;5.648;2023-09-30T03:06:24;20.98;;;9.85;;
25073;SDS011;13066;52.042;5.648;2023-09-30T03:08:52;17.52;;;9.10;;
25073;SDS011;13066;52.042;5.648;2023-09-30T03:11:20;19.70;;;9.02;;
25073;SDS011;13066;52.042;5.648;2023-09-30T03:13:49;22.52;;;10.35;;
25073;SDS011;13066;52.042;5.648;2023-09-30T03:16:18;20.85;;;10.25;;
25073;SDS011;13066;52.042;5.648;2023-09-30T03:18:47;22.67;;;9.93;;
25073;SDS011;13066;52.042;5.648;2023-09-30T03:21:15;23.80;;;10.25;;
25073;SDS011;13066;52.042;5.648;2023-09-30T03:23:45;18.65;;;9.48;;
25073;SDS011;13066;52.042;5.648;2023-09-30T03:26:13;18.73;;;9.55;;
25073;SDS011;13066;52.042;5.648;2023-09-30T03:28:42;21.38;;;9.18;;
25073;SDS011;13066;52.042;5.648;2023-09-30T03:31:10;18.02;;;9.93;;
25073;SDS011;13066;52.042;5.648;2023-09-30T03:33:38;21.83;;;10.75;;
25073;SDS011;13066;52.042;5.648;2023-09-30T03:36:08;23.77;;;10.40;;
25073;SDS011;13066;52.042;5.648;2023-09-30T03:38:37;17.60;;;9.65;;
25073;SDS011;13066;52.042;5.648;2023-09-30T03:41:07;27.08;;;10.88;;
25073;SDS011;13066;52.042;5.648;2023-09-30T03:43:35;23.17;;;10.30;;
25073;SDS011;13066;52.042;5.648;2023-09-30T03:46:07;18.52;;;9.95;;
25073;SDS011;13066;52.042;5.648;2023-09-30T03:48:36;23.05;;;10.80;;
25073;SDS011;13066;52.042;5.648;2023-09-30T03:51:09;21.10;;;10.38;;
25073;SDS011;13066;52.042;5.648;2023-09-30T03:53:40;24.35;;;10.80;;
25073;SDS011;13066;52.042;5.648;2023-09-30T03:56:10;20.30;;;10.68;;
25073;SDS011;13066;52.042;5.648;2023-09-30T03:58:39;20.20;;;10.57;;
25073;SDS011;13066;52.042;5.648;2023-09-30T04:01:07;21.20;;;10.60;;
25073;SDS011;13066;52.042;5.648;2023-09-30T04:03:37;22.88;;;11.05;;
25073;SDS011;13066;52.042;5.648;2023-09-30T04:06:06;21.50;;;10.90;;
25073;SDS011;13066;52.042;5.648;2023-09-30T04:08:34;21.80;;;11.27;;
25073;SDS011;13066;52.042;5.648;2023-09-30T04:11:02;20.70;;;11.18;;
25073;SDS011;13066;52.042;5.648;2023-09-30T04:13:32;19.13;;;11.93;;
25073;SDS011;13066;52.042;5.648;2023-09-30T04:16:01;21.50;;;11.82;;
25073;SDS011;13066;52.042;5.648;2023-09-30T04:18:29;29.77;;;11.50;;
25073;SDS011;13066;52.042;5.648;2023-09-30T04:20:57;27.65;;;12.20;;
25073;SDS011;13066;52.042;5.648;2023-09-30T04:23:25;23.08;;;12.25;;
25073;SDS011;13066;52.042;5.648;2023-09-30T04:25:54;24.75;;;12.88;;
25073;SDS011;13066;52.042;5.648;2023-09-30T04:28:22;25.40;;;11.50;;
25073;SDS011;13066;52.042;5.648;2023-09-30T04:30:52;19.63;;;11.98;;
25073;SDS011;13066;52.042;5.648;2023-09-30T04:33:20;19.55;;;12.35;;
25073;SDS011;13066;52.042;5.648;2023-09-30T04:35:51;20.58;;;12.45;;
25073;SDS011;13066;52.042;5.648;2023-09-30T04:38:19;23.75;;;12.80;;
25073;SDS011;13066;52.042;5.648;2023-09-30T04:40:47;26.65;;;14.20;;
25073;SDS011;13066;52.042;5.648;2023-09-30T04:43:17;26.02;;;12.88;;
25073;SDS011;13066;52.042;5.648;2023-09-30T04:45:45;23.20;;;13.68;;
25073;SDS011;13066;52.042;5.648;2023-09-30T04:48:17;25.92;;;13.57;;
25073;SDS011;13066;52.042;5.648;2023-09-30T04:50:45;24.65;;;12.70;;
25073;SDS011;13066;52.042;5.648;2023-09-30T04:53:13;23.52;;;13.52;;
25073;SDS011;13066;52.042;5.648;2023-09-30T04:55:42;22.08;;;13.98;;
25073;SDS011;13066;52.042;5.648;2023-09-30T04:58:10;25.30;;;13.77;;
25073;SDS011;13066;52.042;5.648;2023-09-30T05:00:39;28.38;;;13.68;;
25073;SDS011;13066;52.042;5.648;2023-09-30T05:03:07;28.70;;;14.27;;
25073;SDS011;13066;52.042;5.648;2023-09-30T05:05:36;28.17;;;13.55;;
25073;SDS011;13066;52.042;5.648;2023-09-30T05:08:04;25.38;;;12.70;;
25073;SDS011;13066;52.042;5.648;2023-09-30T05:10:32;23.60;;;12.65;;
25073;SDS011;13066;52.042;5.648;2023-09-30T05:13:00;25.35;;;13.38;;
25073;SDS011;13066;52.042;5.648;2023-09-30T05:15:29;23.30;;;13.55;;
25073;SDS011;13066;52.042;5.648;2023-09-30T05:17:59;22.83;;;14.50;;
25073;SDS011;13066;52.042;5.648;2023-09-30T05:20:27;21.20;;;13.93;;
25073;SDS011;13066;52.042;5.648;2023-09-30T05:22:56;21.73;;;13.68;;
25073;SDS011;13066;52.042;5.648;2023-09-30T05:25:25;24.10;;;14.20;;
25073;SDS011;13066;52.042;5.648;2023-09-30T05:27:54;27.55;;;14.00;;
25073;SDS011;13066;52.042;5.648;2023-09-30T05:30:23;26.98;;;13.20;;
25073;SDS011;13066;52.042;5.648;2023-09-30T05:32:51;27.02;;;15.30;;
25073;SDS011;13066;52.042;5.648;2023-09-30T05:35:21;23.70;;;14.68;;
25073;SDS011;13066;52.042;5.648;2023-09-30T05:37:50;25.67;;;13.88;;
25073;SDS011;13066;52.042;5.648;2023-09-30T05:40:21;28.33;;;15.30;;
25073;SDS011;13066;52.042;5.648;2023-09-30T05:42:53;37.17;;;14.93;;
25073;SDS011;13066;52.042;5.648;2023-09-30T05:45:21;23.38;;;14.73;;
25073;SDS011;13066;52.042;5.648;2023-09-30T05:47:51;22.15;;;14.50;;
25073;SDS011;13066;52.042;5.648;2023-09-30T05:50:20;27.30;;;15.18;;
25073;SDS011;13066;52.042;5.648;2023-09-30T05:52:51;31.55;;;15.70;;
25073;SDS011;13066;52.042;5.648;2023-09-30T05:55:21;22.60;;;14.98;;
25073;SDS011;13066;52.042;5.648;2023-09-30T05:57:52;29.42;;;15.85;;
25073;SDS011;13066;52.042;5.648;2023-09-30T06:00:21;23.48;;;15.73;;
25073;SDS011;13066;52.042;5.648;2023-09-30T06:02:57;26.35;;;15.43;;
25073;SDS011;13066;52.042;5.648;2023-09-30T06:05:26;25.08;;;15.48;;
25073;SDS011;13066;52.042;5.648;2023-09-30T06:07:57;25.02;;;15.27;;
25073;SDS011;13066;52.042;5.648;2023-09-30T06:10:28;26.52;;;14.60;;
25073;SDS011;13066;52.042;5.648;2023-09-30T06:12:56;24.08;;;16.33;;
25073;SDS011;13066;52.042;5.648;2023-09-30T06:15:25;23.90;;;15.57;;
25073;SDS011;13066;52.042;5.648;2023-09-30T06:17:54;30.23;;;15.38;;
25073;SDS011;13066;52.042;5.648;2023-09-30T06:20:22;27.90;;;15.57;;
25073;SDS011;13066;52.042;5.648;2023-09-30T06:22:54;27.73;;;15.73;;
25073;SDS011;13066;52.042;5.648;2023-09-30T06:25:22;25.52;;;15.07;;
25073;SDS011;13066;52.042;5.648;2023-09-30T06:27:53;28.33;;;15.48;;
25073;SDS011;13066;52.042;5.648;2023-09-30T06:30:22;29.00;;;16.65;;
25073;SDS011;13066;52.042;5.648;2023-09-30T06:32:57;29.25;;;14.77;;
25073;SDS011;13066;52.042;5.648;2023-09-30T06:35:26;24.85;;;16.35;;
25073;SDS011;13066;52.042;5.648;2023-09-30T06:37:57;27.98;;;16.52;;
25073;SDS011;13066;52.042;5.648;2023-09-30T06:40:25;28.60;;;17.00;;
25073;SDS011;13066;52.042;5.648;2023-09-30T06:42:55;27.90;;;17.15;;
25073;SDS011;13066;52.042;5.648;2023-09-30T06:45:24;32.08;;;17.42;;
25073;SDS011;13066;52.042;5.648;2023-09-30T06:47:52;31.92;;;16.60;;
25073;SDS011;13066;52.042;5.648;2023-09-30T06:50:21;29.10;;;17.70;;
25073;SDS011;13066;52.042;5.648;2023-09-30T06:52:50;31.52;;;17.80;;
25073;SDS011;13066;52.042;5.648;2023-09-30T06:55:18;29.88;;;18.27;;
25073;SDS011;13066;52.042;5.648;2023-09-30T06:57:46;32.47;;;17.85;;
25073;SDS011;13066;52.042;5.648;2023-09-30T07:00:15;33.65;;;17.77;;
25073;SDS011;13066;52.042;5.648;2023-09-30T07:02:47;38.28;;;18.17;;
25073;SDS011;13066;52.042;5.648;2023-09-30T07:05:15;30.60;;;19.00;;
25073;SDS011;13066;52.042;5.648;2023-09-30T07:07:42;35.13;;;19.25;;
25073;SDS011;13066;52.042;5.648;2023-09-30T07:10:10;34.22;;;19.08;;
25073;SDS011;13066;52.042;5.648;2023-09-30T07:12:39;34.70;;;18.77;;
25073;SDS011;13066;52.042;5.648;2023-09-30T07:15:07;28.42;;;18.55;;
25073;SDS011;13066;52.042;5.648;2023-09-30T07:17:37;35.13;;;19.92;;
25073;SDS011;13066;52.042;5.648;2023-09-30T07:20:09;33.90;;;21.25;;
25073;SDS011;13066;52.042;5.648;2023-09-30T07:22:38;32.75;;;19.80;;
25073;SDS011;13066;52.042;5.648;2023-09-30T07:25:08;34.42;;;20.02;;
25073;SDS011;13066;52.042;5.648;2023-09-30T07:27:36;33.20;;;20.58;;
25073;SDS011;13066;52.042;5.648;2023-09-30T07:30:05;41.63;;;21.23;;
25073;SDS011;13066;52.042;5.648;2023-09-30T07:32:33;32.13;;;20.63;;
25073;SDS011;13066;52.042;5.648;2023-09-30T07:35:03;34.97;;;19.92;;
25073;SDS011;13066;52.042;5.648;2023-09-30T07:37:31;35.92;;;21.20;;
25073;SDS011;13066;52.042;5.648;2023-09-30T07:40:00;32.50;;;20.02;;
25073;SDS011;13066;52.042;5.648;2023-09-30T07:42:28;41.30;;;21.48;;
25073;SDS011;13066;52.042;5.648;2023-09-30T07:44:56;34.38;;;21.58;;
25073;SDS011;13066;52.042;5.648;2023-09-30T07:47:24;35.45;;;21.67;;
25073;SDS011;13066;52.042;5.648;2023-09-30T07:49:52;37.90;;;21.00;;
25073;SDS011;13066;52.042;5.648;2023-09-30T07:52:21;35.17;;;20.83;;
25073;SDS011;13066;52.042;5.648;2023-09-30T07:54:49;41.30;;;21.15;;
25073;SDS011;13066;52.042;5.648;2023-09-30T07:57:17;37.13;;;21.98;;
25073;SDS011;13066;52.042;5.648;2023-09-30T07:59:47;36.00;;;22.85;;
25073;SDS011;13066;52.042;5.648;2023-09-30T08:02:15;42.80;;;22.52;;
25073;SDS011;13066;52.042;5.648;2023-09-30T08:04:44;36.00;;;21.33;;
25073;SDS011;13066;52.042;5.648;2023-09-30T08:07:12;41.05;;;22.25;;
25073;SDS011;13066;52.042;5.648;2023-09-30T08:09:41;41.50;;;21.58;;
25073;SDS011;13066;52.042;5.648;2023-09-30T08:12:09;35.40;;;21.40;;
25073;SDS011;13066;52.042;5.648;2023-09-30T08:14:37;34.97;;;22.58;;
25073;SDS011;13066;52.042;5.648;2023-09-30T08:17:05;40.05;;;23.23;;
25073;SDS011;13066;52.042;5.648;2023-09-30T08:19:33;44.30;;;23.42;;
25073;SDS011;13066;52.042;5.648;2023-09-30T08:22:01;38.15;;;23.05;;
25073;SDS011;13066;52.042;5.648;2023-09-30T08:24:29;38.80;;;22.10;;
25073;SDS011;13066;52.042;5.648;2023-09-30T08:26:59;36.47;;;21.13;;
25073;SDS011;13066;52.042;5.648;2023-09-30T08:29:27;39.40;;;21.63;;
25073;SDS011;13066;52.042;5.648;2023-09-30T08:31:55;37.85;;;21.45;;
25073;SDS011;13066;52.042;5.648;2023-09-30T08:34:23;37.15;;;20.95;;
25073;SDS011;13066;52.042;5.648;2023-09-30T08:36:50;40.22;;;20.85;;
25073;SDS011;13066;52.042;5.648;2023-09-30T08:39:19;38.95;;;22.83;;
25073;SDS011;13066;52.042;5.648;2023-09-30T08:41:47;34.85;;;20.48;;
25073;SDS011;13066;52.042;5.648;2023-09-30T08:44:16;37.83;;;20.15;;
25073;SDS011;13066;52.042;5.648;2023-09-30T08:46:44;41.00;;;22.90;;
25073;SDS011;13066;52.042;5.648;2023-09-30T08:49:12;35.92;;;21.67;;
25073;SDS011;13066;52.042;5.648;2023-09-30T08:51:41;44.50;;;22.83;;
25073;SDS011;13066;52.042;5.648;2023-09-30T08:54:10;42.33;;;23.15;;
25073;SDS011;13066;52.042;5.648;2023-09-30T08:56:38;37.30;;;21.60;;
25073;SDS011;13066;52.042;5.648;2023-09-30T08:59:09;36.80;;;21.85;;
25073;SDS011;13066;52.042;5.648;2023-09-30T09:01:40;32.83;;;22.65;;
25073;SDS011;13066;52.042;5.648;2023-09-30T09:04:08;41.58;;;22.75;;
25073;SDS011;13066;52.042;5.648;2023-09-30T09:06:36;38.38;;;21.67;;
25073;SDS011;13066;52.042;5.648;2023-09-30T09:09:13;33.45;;;20.73;;
25073;SDS011;13066;52.042;5.648;2023-09-30T09:11:42;36.75;;;22.98;;
25073;SDS011;13066;52.042;5.648;2023-09-30T09:14:11;34.40;;;21.70;;
25073;SDS011;13066;52.042;5.648;2023-09-30T09:16:51;35.10;;;20.73;;
25073;SDS011;13066;52.042;5.648;2023-09-30T09:19:20;32.47;;;21.88;;
25073;SDS011;13066;52.042;5.648;2023-09-30T09:21:55;47.17;;;23.55;;
25073;SDS011;13066;52.042;5.648;2023-09-30T09:24:27;41.50;;;22.42;;
25073;SDS011;13066;52.042;5.648;2023-09-30T09:27:06;45.38;;;24.02;;
25073;SDS011;13066;52.042;5.648;2023-09-30T09:29:35;38.28;;;21.77;;
25073;SDS011;13066;52.042;5.648;2023-09-30T09:32:07;40.63;;;21.48;;
25073;SDS011;13066;52.042;5.648;2023-09-30T09:34:36;35.13;;;19.50;;
25073;SDS011;13066;52.042;5.648;2023-09-30T09:37:12;34.65;;;20.40;;
25073;SDS011;13066;52.042;5.648;2023-09-30T09:39:50;32.38;;;19.55;;
25073;SDS011;13066;52.042;5.648;2023-09-30T09:42:24;40.58;;;20.75;;
25073;SDS011;13066;52.042;5.648;2023-09-30T09:44:56;33.67;;;18.02;;
25073;SDS011;13066;52.042;5.648;2023-09-30T09:47:26;35.78;;;18.75;;
25073;SDS011;13066;52.042;5.648;2023-09-30T09:49:55;37.70;;;18.48;;
25073;SDS011;13066;52.042;5.648;2023-09-30T09:52:25;32.47;;;18.58;;
25073;SDS011;13066;52.042;5.648;2023-09-30T09:54:53;39.13;;;19.52;;
25073;SDS011;13066;52.042;5.648;2023-09-30T09:57:21;33.15;;;18.67;;
25073;SDS011;13066;52.042;5.648;2023-09-30T09:59:52;44.75;;;19.52;;
25073;SDS011;13066;52.042;5.648;2023-09-30T10:02:22;34.13;;;18.70;;
25073;SDS011;13066;52.042;5.648;2023-09-30T10:04:51;31.17;;;17.05;;
25073;SDS011;13066;52.042;5.648;2023-09-30T10:07:20;30.02;;;16.85;;
25073;SDS011;13066;52.042;5.648;2023-09-30T10:09:50;32.65;;;17.45;;
25073;SDS011;13066;52.042;5.648;2023-09-30T10:12:19;42.60;;;19.40;;
25073;SDS011;13066;52.042;5.648;2023-09-30T10:14:48;30.38;;;16.45;;
25073;SDS011;13066;52.042;5.648;2023-09-30T10:17:16;31.05;;;16.10;;
25073;SDS011;13066;52.042;5.648;2023-09-30T10:22:33;32.60;;;14.77;;
25073;SDS011;13066;52.042;5.648;2023-09-30T10:25:01;26.83;;;14.70;;
25073;SDS011;13066;52.042;5.648;2023-09-30T10:27:32;37.30;;;14.85;;
25073;SDS011;13066;52.042;5.648;2023-09-30T10:30:11;26.45;;;14.02;;
25073;SDS011;13066;52.042;5.648;2023-09-30T10:35:54;26.73;;;13.65;;
25073;SDS011;13066;52.042;5.648;2023-09-30T10:38:37;31.65;;;12.88;;
25073;SDS011;13066;52.042;5.648;2023-09-30T10:41:09;28.13;;;11.00;;
25073;SDS011;13066;52.042;5.648;2023-09-30T10:43:39;26.35;;;10.65;;
25073;SDS011;13066;52.042;5.648;2023-09-30T10:49:00;24.75;;;10.27;;
25073;SDS011;13066;52.042;5.648;2023-09-30T10:51:45;24.48;;;10.45;;
25073;SDS011;13066;52.042;5.648;2023-09-30T10:54:13;21.13;;;10.35;;
25073;SDS011;13066;52.042;5.648;2023-09-30T10:56:41;30.30;;;8.00;;
25073;SDS011;13066;52.042;5.648;2023-09-30T10:59:09;17.15;;;6.55;;
25073;SDS011;13066;52.042;5.648;2023-09-30T11:01:37;16.88;;;6.07;;
25073;SDS011;13066;52.042;5.648;2023-09-30T11:04:05;22.17;;;6.63;;
25073;SDS011;13066;52.042;5.648;2023-09-30T11:06:35;15.00;;;4.78;;
25073;SDS011;13066;52.042;5.648;2023-09-30T11:09:09;17.67;;;5.22;;
25073;SDS011;13066;52.042;5.648;2023-09-30T11:11:40;16.88;;;4.60;;
25073;SDS011;13066;52.042;5.648;2023-09-30T11:14:17;17.45;;;5.40;;
25073;SDS011;13066;52.042;5.648;2023-09-30T11:16:50;12.50;;;4.00;;
25073;SDS011;13066;52.042;5.648;2023-09-30T11:19:19;15.18;;;5.05;;
25073;SDS011;13066;52.042;5.648;2023-09-30T11:21:48;13.27;;;4.57;;
25073;SDS011;13066;52.042;5.648;2023-09-30T11:24:18;16.75;;;5.07;;
25073;SDS011;13066;52.042;5.648;2023-09-30T11:26:47;15.77;;;5.28;;
25073;SDS011;13066;52.042;5.648;2023-09-30T11:29:16;20.98;;;5.75;;
25073;SDS011;13066;52.042;5.648;2023-09-30T11:31:45;15.52;;;4.40;;
25073;SDS011;13066;52.042;5.648;2023-09-30T11:34:15;14.65;;;3.70;;
25073;SDS011;13066;52.042;5.648;2023-09-30T11:36:47;19.35;;;5.07;;
25073;SDS011;13066;52.042;5.648;2023-09-30T11:39:22;15.02;;;4.70;;
25073;SDS011;13066;52.042;5.648;2023-09-30T11:41:51;12.80;;;4.45;;
25073;SDS011;13066;52.042;5.648;2023-09-30T11:44:19;16.60;;;4.55;;
25073;SDS011;13066;52.042;5.648;2023-09-30T11:46:48;16.88;;;4.68;;
25073;SDS011;13066;52.042;5.648;2023-09-30T11:49:26;15.88;;;4.25;;
25073;SDS011;13066;52.042;5.648;2023-09-30T11:51:57;12.77;;;3.90;;
25073;SDS011;13066;52.042;5.648;2023-09-30T11:54:31;18.45;;;4.35;;
25073;SDS011;13066;52.042;5.648;2023-09-30T11:57:00;10.02;;;3.85;;
25073;SDS011;13066;52.042;5.648;2023-09-30T11:59:29;10.68;;;3.47;;
25073;SDS011;13066;52.042;5.648;2023-09-30T12:01:58;13.90;;;4.20;;
25073;SDS011;13066;52.042;5.648;2023-09-30T12:04:40;16.83;;;4.32;;
25073;SDS011;13066;52.042;5.648;2023-09-30T12:07:09;15.20;;;4.32;;
25073;SDS011;13066;52.042;5.648;2023-09-30T12:09:39;18.75;;;4.28;;
25073;SDS011;13066;52.042;5.648;2023-09-30T12:12:07;16.73;;;4.40;;
25073;SDS011;13066;52.042;5.648;2023-09-30T12:14:37;14.02;;;4.53;;
25073;SDS011;13066;52.042;5.648;2023-09-30T12:17:06;13.23;;;4.85;;
25073;SDS011;13066;52.042;5.648;2023-09-30T12:19:38;12.38;;;4.75;;
25073;SDS011;13066;52.042;5.648;2023-09-30T12:22:08;14.55;;;4.45;;
25073;SDS011;13066;52.042;5.648;2023-09-30T12:24:36;10.20;;;4.38;;
25073;SDS011;13066;52.042;5.648;2023-09-30T12:27:05;13.52;;;4.05;;
25073;SDS011;13066;52.042;5.648;2023-09-30T12:29:33;12.85;;;3.88;;
25073;SDS011;13066;52.042;5.648;2023-09-30T12:32:01;16.73;;;3.90;;
25073;SDS011;13066;52.042;5.648;2023-09-30T12:34:32;15.73;;;4.28;;
25073;SDS011;13066;52.042;5.648;2023-09-30T12:37:00;12.52;;;4.00;;
25073;SDS011;13066;52.042;5.648;2023-09-30T12:39:28;16.30;;;4.20;;
25073;SDS011;13066;52.042;5.648;2023-09-30T12:42:00;14.02;;;4.35;;
25073;SDS011;13066;52.042;5.648;2023-09-30T12:44:31;18.35;;;4.70;;
25073;SDS011;13066;52.042;5.648;2023-09-30T12:47:00;13.80;;;4.30;;
25073;SDS011;13066;52.042;5.648;2023-09-30T12:49:28;16.38;;;4.40;;
25073;SDS011;13066;52.042;5.648;2023-09-30T12:51:56;13.23;;;4.22;;
25073;SDS011;13066;52.042;5.648;2023-09-30T12:54:25;17.27;;;4.47;;
25073;SDS011;13066;52.042;5.648;2023-09-30T12:56:53;17.77;;;4.30;;
25073;SDS011;13066;52.042;5.648;2023-09-30T12:59:21;11.02;;;3.97;;
25073;SDS011;13066;52.042;5.648;2023-09-30T13:01:53;18.55;;;3.95;;
25073;SDS011;13066;52.042;5.648;2023-09-30T13:04:23;13.32;;;4.22;;
25073;SDS011;13066;52.042;5.648;2023-09-30T13:06:52;12.88;;;3.75;;
25073;SDS011;13066;52.042;5.648;2023-09-30T13:09:20;15.65;;;4.35;;
25073;SDS011;13066;52.042;5.648;2023-09-30T13:11:49;12.50;;;3.90;;
25073;SDS011;13066;52.042;5.648;2023-09-30T13:14:16;21.92;;;4.65;;
25073;SDS011;13066;52.042;5.648;2023-09-30T13:16:44;13.07;;;4.38;;
25073;SDS011;13066;52.042;5.648;2023-09-30T13:19:14;14.57;;;4.53;;
25073;SDS011;13066;52.042;5.648;2023-09-30T13:21:42;13.40;;;4.65;;
25073;SDS011;13066;52.042;5.648;2023-09-30T13:24:10;14.90;;;4.80;;
25073;SDS011;13066;52.042;5.648;2023-09-30T13:26:38;16.98;;;4.78;;
25073;SDS011;13066;52.042;5.648;2023-09-30T13:29:06;19.50;;;4.95;;
25073;SDS011;13066;52.042;5.648;2023-09-30T13:31:36;14.90;;;4.53;;
25073;SDS011;13066;52.042;5.648;2023-09-30T13:34:04;17.02;;;4.88;;
25073;SDS011;13066;52.042;5.648;2023-09-30T13:36:34;19.27;;;5.35;;
25073;SDS011;13066;52.042;5.648;2023-09-30T13:39:02;14.43;;;4.47;;
25073;SDS011;13066;52.042;5.648;2023-09-30T13:41:33;17.92;;;4.78;;
25073;SDS011;13066;52.042;5.648;2023-09-30T13:44:02;14.15;;;4.95;;
25073;SDS011;13066;52.042;5.648;2023-09-30T13:46:30;14.95;;;4.60;;
25073;SDS011;13066;52.042;5.648;2023-09-30T13:48:58;14.52;;;4.68;;
25073;SDS011;13066;52.042;5.648;2023-09-30T13:51:26;14.38;;;4.78;;
25073;SDS011;13066;52.042;5.648;2023-09-30T13:53:55;17.80;;;4.95;;
25073;SDS011;13066;52.042;5.648;2023-09-30T13:56:23;15.20;;;4.97;;
25073;SDS011;13066;52.042;5.648;2023-09-30T13:58:51;12.18;;;4.47;;
25073;SDS011;13066;52.042;5.648;2023-09-30T14:01:19;12.57;;;4.75;;
25073;SDS011;13066;52.042;5.648;2023-09-30T14:03:47;13.60;;;4.93;;
25073;SDS011;13066;52.042;5.648;2023-09-30T14:06:15;13.48;;;4.72;;
25073;SDS011;13066;52.042;5.648;2023-09-30T14:08:43;16.50;;;4.88;;
25073;SDS011;13066;52.042;5.648;2023-09-30T14:11:13;13.80;;;5.10;;
25073;SDS011;13066;52.042;5.648;2023-09-30T14:13:41;12.63;;;5.65;;
25073;SDS011;13066;52.042;5.648;2023-09-30T14:16:10;13.73;;;5.03;;
25073;SDS011;13066;52.042;5.648;2023-09-30T14:18:38;21.75;;;6.95;;
25073;SDS011;13066;52.042;5.648;2023-09-30T14:21:06;38.45;;;15.43;;
25073;SDS011;13066;52.042;5.648;2023-09-30T14:23:34;46.08;;;13.23;;
25073;SDS011;13066;52.042;5.648;2023-09-30T14:42:17;14.77;;;5.40;;
25073;SDS011;13066;52.042;5.648;2023-09-30T14:50:12;24.08;;;14.13;;
25073;SDS011;13066;52.042;5.648;2023-09-30T14:52:40;13.27;;;8.38;;
25073;SDS011;13066;52.042;5.648;2023-09-30T14:55:08;11.88;;;6.30;;
25073;SDS011;13066;52.042;5.648;2023-09-30T14:57:36;12.45;;;7.32;;
25073;SDS011;13066;52.042;5.648;2023-09-30T15:00:04;7.82;;;4.78;;
25073;SDS011;13066;52.042;5.648;2023-09-30T15:02:33;10.13;;;5.75;;
25073;SDS011;13066;52.042;5.648;2023-09-30T15:05:03;10.10;;;4.97;;
25073;SDS011;13066;52.042;5.648;2023-09-30T15:07:33;9.68;;;4.80;;
25073;SDS011;13066;52.042;5.648;2023-09-30T15:10:04;8.55;;;5.35;;